sensor_id;sensor_type;location;lat;lon;timestamp;pressure;altitude;pressure_sealevel;temperature;humidity
11302;BME280;5706;50.650;13.380;2022-11-20T00:00:31;56425.66;;;-140.63;64.70
11302;BME280;5706;50.650;13.380;2022-11-20T00:02:58;56459.47;;;-140.63;65.35
11302;BME280;5706;50.650;13.380;2022-11-20T00:05:26;56409.75;;;-140.63;65.22
11302;BME280;5706;50.650;13.380;2022-11-20T00:07:55;56403.78;;;-140.63;65.44
11302;BME280;5706;50.650;13.380;2022-11-20T00:10:23;56483.31;;;-140.63;65.68
11302;BME280;5706;50.650;13.380;2022-11-20T00:12:51;56417.69;;;-140.63;64.80
11302;BME280;5706;50.650;13.380;2022-11-20T00:15:19;56415.72;;;-140.63;65.51
11302;BME280;5706;50.650;13.380;2022-11-20T00:17:47;56467.41;;;-140.63;65.60
11302;BME280;5706;50.650;13.380;2022-11-20T00:20:15;56385.88;;;-140.63;65.76
11302;BME280;5706;50.650;13.380;2022-11-20T00:22:43;56417.69;;;-140.63;65.83
11302;BME280;5706;50.650;13.380;2022-11-20T00:25:12;56423.66;;;-140.63;65.42
11302;BME280;5706;50.650;13.380;2022-11-20T00:27:39;56423.66;;;-140.63;64.41
11302;BME280;5706;50.650;13.380;2022-11-20T00:30:08;56413.72;;;-140.63;64.90
11302;BME280;5706;50.650;13.380;2022-11-20T00:32:37;56439.56;;;-140.63;65.28
11302;BME280;5706;50.650;13.380;2022-11-20T00:35:05;56409.75;;;-140.63;65.89
11302;BME280;5706;50.650;13.380;2022-11-20T00:37:32;56411.75;;;-140.63;65.30
11302;BME280;5706;50.650;13.380;2022-11-20T00:40:00;56413.72;;;-140.63;65.51
11302;BME280;5706;50.650;13.380;2022-11-20T00:42:30;56449.50;;;-140.63;65.70
11302;BME280;5706;50.650;13.380;2022-11-20T00:44:59;56425.66;;;-140.63;65.49
11302;BME280;5706;50.650;13.380;2022-11-20T00:47:26;56395.84;;;-140.63;65.40
11302;BME280;5706;50.650;13.380;2022-11-20T00:49:54;56405.78;;;-140.63;65.55
11302;BME280;5706;50.650;13.380;2022-11-20T00:52:22;56425.66;;;-140.63;65.32
11302;BME280;5706;50.650;13.380;2022-11-20T00:54:49;56457.47;;;-140.63;65.17
11302;BME280;5706;50.650;13.380;2022-11-20T00:57:17;56405.78;;;-140.63;65.46
11302;BME280;5706;50.650;13.380;2022-11-20T00:59:45;56443.56;;;-140.63;65.01
11302;BME280;5706;50.650;13.380;2022-11-20T01:02:13;56427.66;;;-140.63;65.19
11302;BME280;5706;50.650;13.380;2022-11-20T01:04:41;56429.63;;;-140.63;64.09
11302;BME280;5706;50.650;13.380;2022-11-20T01:07:09;56423.66;;;-140.63;63.97
11302;BME280;5706;50.650;13.380;2022-11-20T01:09:36;56445.53;;;-140.63;63.73
11302;BME280;5706;50.650;13.380;2022-11-20T01:12:04;56421.69;;;-140.63;64.08
11302;BME280;5706;50.650;13.380;2022-11-20T01:14:32;56385.88;;;-140.63;63.64
11302;BME280;5706;50.650;13.380;2022-11-20T01:17:01;56425.66;;;-140.63;63.02
11302;BME280;5706;50.650;13.380;2022-11-20T01:19:29;56429.63;;;-140.63;64.06
11302;BME280;5706;50.650;13.380;2022-11-20T01:21:57;56441.56;;;-140.63;63.48
11302;BME280;5706;50.650;13.380;2022-11-20T01:24:25;56437.59;;;-140.63;63.43
11302;BME280;5706;50.650;13.380;2022-11-20T01:26:52;56425.66;;;-140.63;63.52
11302;BME280;5706;50.650;13.380;2022-11-20T01:29:22;56443.56;;;-140.63;63.80
11302;BME280;5706;50.650;13.380;2022-11-20T01:31:51;56425.66;;;-140.63;64.20
11302;BME280;5706;50.650;13.380;2022-11-20T01:34:21;56423.66;;;-140.63;64.19
11302;BME280;5706;50.650;13.380;2022-11-20T01:36:51;56433.59;;;-140.63;63.97
11302;BME280;5706;50.650;13.380;2022-11-20T01:39:20;56389.88;;;-140.63;64.46
11302;BME280;5706;50.650;13.380;2022-11-20T01:41:50;56429.63;;;-140.63;64.27
11302;BME280;5706;50.650;13.380;2022-11-20T01:44:55;56425.66;;;-140.63;64.29
11302;BME280;5706;50.650;13.380;2022-11-20T01:47:29;56429.63;;;-140.63;65.08
11302;BME280;5706;50.650;13.380;2022-11-20T01:50:04;56427.66;;;-140.63;64.91
11302;BME280;5706;50.650;13.380;2022-11-20T01:52:40;56427.66;;;-140.63;64.18
11302;BME280;5706;50.650;13.380;2022-11-20T01:55:13;56449.50;;;-140.63;64.34
11302;BME280;5706;50.650;13.380;2022-11-20T01:57:44;56459.47;;;-140.63;64.17
11302;BME280;5706;50.650;13.380;2022-11-20T02:00:16;56427.66;;;-140.63;64.53
11302;BME280;5706;50.650;13.380;2022-11-20T02:02:47;56413.72;;;-140.63;64.54
11302;BME280;5706;50.650;13.380;2022-11-20T02:05:23;56409.75;;;-140.63;65.28
11302;BME280;5706;50.650;13.380;2022-11-20T02:07:56;56437.59;;;-140.63;64.63
11302;BME280;5706;50.650;13.380;2022-11-20T02:10:26;56409.75;;;-140.63;65.05
11302;BME280;5706;50.650;13.380;2022-11-20T02:12:56;56435.59;;;-140.63;64.78
11302;BME280;5706;50.650;13.380;2022-11-20T02:15:42;56441.56;;;-140.63;64.65
11302;BME280;5706;50.650;13.380;2022-11-20T02:18:11;56421.69;;;-140.63;65.09
11302;BME280;5706;50.650;13.380;2022-11-20T02:20:44;56461.44;;;-140.63;64.67
11302;BME280;5706;50.650;13.380;2022-11-20T02:23:18;56425.66;;;-140.63;64.16
11302;BME280;5706;50.650;13.380;2022-11-20T02:25:55;56445.53;;;-140.63;64.38
11302;BME280;5706;50.650;13.380;2022-11-20T02:28:25;56443.56;;;-140.63;63.80
11302;BME280;5706;50.650;13.380;2022-11-20T02:30:52;56419.69;;;-140.63;63.60
11302;BME280;5706;50.650;13.380;2022-11-20T02:33:20;56433.59;;;-140.63;63.99
11302;BME280;5706;50.650;13.380;2022-11-20T02:35:47;56413.72;;;-140.63;64.97
11302;BME280;5706;50.650;13.380;2022-11-20T02:38:15;56433.59;;;-140.63;64.55
11302;BME280;5706;50.650;13.380;2022-11-20T02:40:43;56433.59;;;-140.63;64.58
11302;BME280;5706;50.650;13.380;2022-11-20T02:43:12;56433.59;;;-140.63;64.93
11302;BME280;5706;50.650;13.380;2022-11-20T02:45:42;56451.50;;;-140.63;64.10
11302;BME280;5706;50.650;13.380;2022-11-20T02:48:09;56453.50;;;-140.63;64.34
11302;BME280;5706;50.650;13.380;2022-11-20T02:50:38;56405.78;;;-140.63;64.24
11302;BME280;5706;50.650;13.380;2022-11-20T02:53:06;56399.81;;;-140.63;64.70
11302;BME280;5706;50.650;13.380;2022-11-20T02:55:34;56405.78;;;-140.63;64.02
11302;BME280;5706;50.650;13.380;2022-11-20T02:58:02;56431.63;;;-140.63;64.60
11302;BME280;5706;50.650;13.380;2022-11-20T03:00:31;56433.59;;;-140.63;64.40
11302;BME280;5706;50.650;13.380;2022-11-20T03:02:59;56443.56;;;-140.63;64.41
11302;BME280;5706;50.650;13.380;2022-11-20T03:05:26;56427.66;;;-140.63;63.93
11302;BME280;5706;50.650;13.380;2022-11-20T03:07:54;56441.56;;;-140.63;63.35
11302;BME280;5706;50.650;13.380;2022-11-20T03:10:21;56433.59;;;-140.63;63.99
11302;BME280;5706;50.650;13.380;2022-11-20T03:12:52;56445.53;;;-140.63;63.67
11302;BME280;5706;50.650;13.380;2022-11-20T03:15:21;56453.50;;;-140.63;63.44
11302;BME280;5706;50.650;13.380;2022-11-20T03:17:53;56419.69;;;-140.63;63.09
11302;BME280;5706;50.650;13.380;2022-11-20T03:20:21;56413.72;;;-140.63;63.12
11302;BME280;5706;50.650;13.380;2022-11-20T03:22:49;56427.66;;;-140.63;63.04
11302;BME280;5706;50.650;13.380;2022-11-20T03:25:17;56445.53;;;-140.63;63.60
11302;BME280;5706;50.650;13.380;2022-11-20T03:27:44;56413.72;;;-140.63;64.00
11302;BME280;5706;50.650;13.380;2022-11-20T03:32:40;56401.78;;;-140.63;63.57
11302;BME280;5706;50.650;13.380;2022-11-20T03:35:09;56427.66;;;-140.63;63.53
11302;BME280;5706;50.650;13.380;2022-11-20T03:37:37;56415.72;;;-140.63;63.67
11302;BME280;5706;50.650;13.380;2022-11-20T03:40:06;56425.66;;;-140.63;63.69
11302;BME280;5706;50.650;13.380;2022-11-20T03:42:35;56437.59;;;-140.63;63.12
11302;BME280;5706;50.650;13.380;2022-11-20T03:45:13;56427.66;;;-140.63;63.52
11302;BME280;5706;50.650;13.380;2022-11-20T03:47:41;56409.75;;;-140.63;62.82
11302;BME280;5706;50.650;13.380;2022-11-20T03:50:12;56425.66;;;-140.63;64.00
11302;BME280;5706;50.650;13.380;2022-11-20T03:52:40;56419.69;;;-140.63;63.98
11302;BME280;5706;50.650;13.380;2022-11-20T03:55:08;56415.72;;;-140.63;64.01
11302;BME280;5706;50.650;13.380;2022-11-20T03:57:36;56431.63;;;-140.63;62.98
11302;BME280;5706;50.650;13.380;2022-11-20T04:00:04;56451.50;;;-140.63;65.08
11302;BME280;5706;50.650;13.380;2022-11-20T04:02:33;56439.56;;;-140.63;64.90
11302;BME280;5706;50.650;13.380;2022-11-20T04:05:00;56423.66;;;-140.63;66.93
11302;BME280;5706;50.650;13.380;2022-11-20T04:07:30;56433.59;;;-140.63;67.81
11302;BME280;5706;50.650;13.380;2022-11-20T04:09:59;56415.72;;;-140.63;67.58
11302;BME280;5706;50.650;13.380;2022-11-20T04:12:32;56433.59;;;-140.63;67.67
11302;BME280;5706;50.650;13.380;2022-11-20T04:14:59;56439.56;;;-140.63;67.43
11302;BME280;5706;50.650;13.380;2022-11-20T04:17:28;56437.59;;;-140.63;67.61
11302;BME280;5706;50.650;13.380;2022-11-20T04:19:56;56469.41;;;-140.63;67.69
11302;BME280;5706;50.650;13.380;2022-11-20T04:22:23;56437.59;;;-140.63;68.00
11302;BME280;5706;50.650;13.380;2022-11-20T04:24:52;56459.47;;;-140.63;68.41
11302;BME280;5706;50.650;13.380;2022-11-20T04:27:20;56405.78;;;-140.63;67.62
11302;BME280;5706;50.650;13.380;2022-11-20T04:29:48;56433.59;;;-140.63;67.58
11302;BME280;5706;50.650;13.380;2022-11-20T04:32:15;56413.72;;;-140.63;67.98
11302;BME280;5706;50.650;13.380;2022-11-20T04:34:43;56407.75;;;-140.63;65.77
11302;BME280;5706;50.650;13.380;2022-11-20T04:37:10;56429.63;;;-140.63;66.77
11302;BME280;5706;50.650;13.380;2022-11-20T04:39:38;56429.63;;;-140.63;67.54
11302;BME280;5706;50.650;13.380;2022-11-20T04:42:08;56443.56;;;-140.63;68.02
11302;BME280;5706;50.650;13.380;2022-11-20T04:44:54;56463.44;;;-140.63;66.14
11302;BME280;5706;50.650;13.380;2022-11-20T04:47:23;56457.47;;;-140.63;66.98
11302;BME280;5706;50.650;13.380;2022-11-20T04:49:51;56409.75;;;-140.63;66.13
11302;BME280;5706;50.650;13.380;2022-11-20T04:52:18;56433.59;;;-140.63;66.24
11302;BME280;5706;50.650;13.380;2022-11-20T04:54:46;56427.66;;;-140.63;65.76
11302;BME280;5706;50.650;13.380;2022-11-20T04:57:15;56447.53;;;-140.63;67.37
11302;BME280;5706;50.650;13.380;2022-11-20T04:59:43;56415.72;;;-140.63;65.50
11302;BME280;5706;50.650;13.380;2022-11-20T05:02:10;56445.53;;;-140.63;66.65
11302;BME280;5706;50.650;13.380;2022-11-20T05:04:38;56453.50;;;-140.63;67.65
11302;BME280;5706;50.650;13.380;2022-11-20T05:07:06;56411.75;;;-140.63;68.46
11302;BME280;5706;50.650;13.380;2022-11-20T05:09:33;56429.63;;;-140.63;68.44
11302;BME280;5706;50.650;13.380;2022-11-20T05:12:01;56413.72;;;-140.63;67.57
11302;BME280;5706;50.650;13.380;2022-11-20T05:14:31;56421.69;;;-140.63;67.46
11302;BME280;5706;50.650;13.380;2022-11-20T05:16:58;56443.56;;;-140.63;66.70
11302;BME280;5706;50.650;13.380;2022-11-20T05:19:26;56423.66;;;-140.63;67.09
11302;BME280;5706;50.650;13.380;2022-11-20T05:21:53;56413.72;;;-140.63;67.36
11302;BME280;5706;50.650;13.380;2022-11-20T05:24:21;56401.78;;;-140.63;65.42
11302;BME280;5706;50.650;13.380;2022-11-20T05:26:48;56433.59;;;-140.63;63.89
11302;BME280;5706;50.650;13.380;2022-11-20T05:29:16;56429.63;;;-140.63;66.31
11302;BME280;5706;50.650;13.380;2022-11-20T05:31:45;56409.75;;;-140.63;64.23
11302;BME280;5706;50.650;13.380;2022-11-20T05:34:13;56449.50;;;-140.63;65.89
11302;BME280;5706;50.650;13.380;2022-11-20T05:36:40;56457.47;;;-140.63;66.87
11302;BME280;5706;50.650;13.380;2022-11-20T05:39:08;56417.69;;;-140.63;67.79
11302;BME280;5706;50.650;13.380;2022-11-20T05:41:36;56433.59;;;-140.63;67.24
11302;BME280;5706;50.650;13.380;2022-11-20T05:44:04;56429.63;;;-140.63;68.04
11302;BME280;5706;50.650;13.380;2022-11-20T05:46:31;56451.50;;;-140.63;67.43
11302;BME280;5706;50.650;13.380;2022-11-20T05:49:00;56437.59;;;-140.63;66.96
11302;BME280;5706;50.650;13.380;2022-11-20T05:51:29;56437.59;;;-140.63;67.27
11302;BME280;5706;50.650;13.380;2022-11-20T05:53:57;56441.56;;;-140.63;67.84
11302;BME280;5706;50.650;13.380;2022-11-20T05:56:24;56429.63;;;-140.63;67.58
11302;BME280;5706;50.650;13.380;2022-11-20T05:58:52;56447.53;;;-140.63;67.47
11302;BME280;5706;50.650;13.380;2022-11-20T06:01:22;56433.59;;;-140.63;67.15
11302;BME280;5706;50.650;13.380;2022-11-20T06:03:52;56409.75;;;-140.63;66.58
11302;BME280;5706;50.650;13.380;2022-11-20T06:06:22;56417.69;;;-140.63;66.65
11302;BME280;5706;50.650;13.380;2022-11-20T06:08:50;56465.41;;;-140.63;67.03
11302;BME280;5706;50.650;13.380;2022-11-20T06:11:18;56435.59;;;-140.63;66.70
11302;BME280;5706;50.650;13.380;2022-11-20T06:13:46;56465.41;;;-140.63;66.58
11302;BME280;5706;50.650;13.380;2022-11-20T06:16:15;56415.72;;;-140.63;66.94
11302;BME280;5706;50.650;13.380;2022-11-20T06:18:45;56461.44;;;-140.63;67.30
11302;BME280;5706;50.650;13.380;2022-11-20T06:21:14;56429.63;;;-140.63;66.94
11302;BME280;5706;50.650;13.380;2022-11-20T06:23:45;56417.69;;;-140.63;67.36
11302;BME280;5706;50.650;13.380;2022-11-20T06:26:14;56441.56;;;-140.63;66.95
11302;BME280;5706;50.650;13.380;2022-11-20T06:28:43;56395.84;;;-140.63;67.13
11302;BME280;5706;50.650;13.380;2022-11-20T06:31:13;56401.78;;;-140.63;63.34
11302;BME280;5706;50.650;13.380;2022-11-20T06:33:42;56431.63;;;-140.63;62.47
11302;BME280;5706;50.650;13.380;2022-11-20T06:36:12;56459.47;;;-140.63;62.35
11302;BME280;5706;50.650;13.380;2022-11-20T06:38:41;56443.56;;;-140.63;62.12
11302;BME280;5706;50.650;13.380;2022-11-20T06:41:13;56407.75;;;-140.63;64.43
11302;BME280;5706;50.650;13.380;2022-11-20T06:43:43;56433.59;;;-140.63;68.16
11302;BME280;5706;50.650;13.380;2022-11-20T06:46:13;56429.63;;;-140.63;68.38
11302;BME280;5706;50.650;13.380;2022-11-20T06:48:43;56427.66;;;-140.63;68.01
11302;BME280;5706;50.650;13.380;2022-11-20T06:51:12;56401.78;;;-140.63;67.72
11302;BME280;5706;50.650;13.380;2022-11-20T06:53:40;56413.72;;;-140.63;67.57
11302;BME280;5706;50.650;13.380;2022-11-20T06:56:09;56421.69;;;-140.63;66.84
11302;BME280;5706;50.650;13.380;2022-11-20T06:58:36;56429.63;;;-140.63;65.95
11302;BME280;5706;50.650;13.380;2022-11-20T07:01:06;56439.56;;;-140.63;66.86
11302;BME280;5706;50.650;13.380;2022-11-20T07:03:35;56457.47;;;-140.63;67.43
11302;BME280;5706;50.650;13.380;2022-11-20T07:06:04;56451.50;;;-140.63;67.55
11302;BME280;5706;50.650;13.380;2022-11-20T07:08:33;56445.53;;;-140.63;67.51
11302;BME280;5706;50.650;13.380;2022-11-20T07:11:03;56433.59;;;-140.63;67.31
11302;BME280;5706;50.650;13.380;2022-11-20T07:13:33;56427.66;;;-140.63;67.59
11302;BME280;5706;50.650;13.380;2022-11-20T07:16:03;56457.47;;;-140.63;66.78
11302;BME280;5706;50.650;13.380;2022-11-20T07:18:33;56417.69;;;-140.63;66.53
11302;BME280;5706;50.650;13.380;2022-11-20T07:21:01;56437.59;;;-140.63;65.88
11302;BME280;5706;50.650;13.380;2022-11-20T07:23:30;56447.53;;;-140.63;66.14
11302;BME280;5706;50.650;13.380;2022-11-20T07:25:58;56461.44;;;-140.63;66.02
11302;BME280;5706;50.650;13.380;2022-11-20T07:28:29;56417.69;;;-140.63;65.48
11302;BME280;5706;50.650;13.380;2022-11-20T07:30:58;56431.63;;;-140.63;65.42
11302;BME280;5706;50.650;13.380;2022-11-20T07:33:26;56435.59;;;-140.63;65.55
11302;BME280;5706;50.650;13.380;2022-11-20T07:35:53;56419.69;;;-140.63;65.20
11302;BME280;5706;50.650;13.380;2022-11-20T07:38:21;56409.75;;;-140.63;65.27
11302;BME280;5706;50.650;13.380;2022-11-20T07:40:53;56439.56;;;-140.63;65.99
11302;BME280;5706;50.650;13.380;2022-11-20T07:43:23;56439.56;;;-140.63;65.85
11302;BME280;5706;50.650;13.380;2022-11-20T07:45:51;56457.47;;;-140.63;64.77
11302;BME280;5706;50.650;13.380;2022-11-20T07:48:22;56421.69;;;-140.63;64.07
11302;BME280;5706;50.650;13.380;2022-11-20T07:50:53;56443.56;;;-140.63;64.59
11302;BME280;5706;50.650;13.380;2022-11-20T07:53:21;56445.53;;;-140.63;63.79
11302;BME280;5706;50.650;13.380;2022-11-20T07:55:48;56463.44;;;-140.63;63.77
11302;BME280;5706;50.650;13.380;2022-11-20T07:58:17;56447.53;;;-140.63;63.54
11302;BME280;5706;50.650;13.380;2022-11-20T08:00:45;56443.56;;;-140.63;63.71
11302;BME280;5706;50.650;13.380;2022-11-20T08:03:13;56443.56;;;-140.63;63.17
11302;BME280;5706;50.650;13.380;2022-11-20T08:05:42;56417.69;;;-140.63;63.86
11302;BME280;5706;50.650;13.380;2022-11-20T08:08:09;56441.56;;;-140.63;62.80
11302;BME280;5706;50.650;13.380;2022-11-20T08:10:38;56397.81;;;-140.63;62.95
11302;BME280;5706;50.650;13.380;2022-11-20T08:13:16;56443.56;;;-140.63;62.89
11302;BME280;5706;50.650;13.380;2022-11-20T08:16:07;56449.50;;;-140.63;62.95
11302;BME280;5706;50.650;13.380;2022-11-20T08:18:45;56431.63;;;-140.63;62.83
11302;BME280;5706;50.650;13.380;2022-11-20T08:21:24;56421.69;;;-140.63;63.84
11302;BME280;5706;50.650;13.380;2022-11-20T08:23:51;56393.84;;;-140.63;63.44
11302;BME280;5706;50.650;13.380;2022-11-20T08:26:20;56411.75;;;-140.63;63.82
11302;BME280;5706;50.650;13.380;2022-11-20T08:28:48;56421.69;;;-140.63;62.16
11302;BME280;5706;50.650;13.380;2022-11-20T08:31:20;56421.69;;;-140.63;62.31
11302;BME280;5706;50.650;13.380;2022-11-20T08:33:48;56453.50;;;-140.63;61.29
11302;BME280;5706;50.650;13.380;2022-11-20T08:36:16;56425.66;;;-140.63;60.71
11302;BME280;5706;50.650;13.380;2022-11-20T08:38:48;56421.69;;;-140.63;60.36
11302;BME280;5706;50.650;13.380;2022-11-20T08:41:17;56445.53;;;-140.63;59.45
11302;BME280;5706;50.650;13.380;2022-11-20T08:43:52;56427.66;;;-140.63;59.08
11302;BME280;5706;50.650;13.380;2022-11-20T08:46:23;56397.81;;;-140.63;57.53
11302;BME280;5706;50.650;13.380;2022-11-20T08:48:52;56425.66;;;-140.63;55.61
11302;BME280;5706;50.650;13.380;2022-11-20T08:51:22;56433.59;;;-140.63;55.66
11302;BME280;5706;50.650;13.380;2022-11-20T08:53:51;56449.50;;;-140.63;55.82
11302;BME280;5706;50.650;13.380;2022-11-20T08:56:19;56445.53;;;-140.63;55.80
11302;BME280;5706;50.650;13.380;2022-11-20T08:58:47;56443.56;;;-140.63;57.24
11302;BME280;5706;50.650;13.380;2022-11-20T09:01:16;56417.69;;;-140.63;56.34
11302;BME280;5706;50.650;13.380;2022-11-20T09:03:45;56371.97;;;-140.63;56.78
11302;BME280;5706;50.650;13.380;2022-11-20T09:06:13;56403.78;;;-140.63;56.82
11302;BME280;5706;50.650;13.380;2022-11-20T09:08:41;56423.66;;;-140.63;57.35
11302;BME280;5706;50.650;13.380;2022-11-20T09:11:11;56395.84;;;-140.63;58.25
11302;BME280;5706;50.650;13.380;2022-11-20T09:13:39;56409.75;;;-140.63;58.10
11302;BME280;5706;50.650;13.380;2022-11-20T09:16:08;56395.84;;;-140.63;57.56
11302;BME280;5706;50.650;13.380;2022-11-20T09:18:36;56427.66;;;-140.63;57.84
11302;BME280;5706;50.650;13.380;2022-11-20T09:21:05;56407.75;;;-140.63;58.92
11302;BME280;5706;50.650;13.380;2022-11-20T09:23:37;56443.56;;;-140.63;58.77
11302;BME280;5706;50.650;13.380;2022-11-20T09:26:07;56421.69;;;-140.63;58.78
11302;BME280;5706;50.650;13.380;2022-11-20T09:28:38;56445.53;;;-140.63;58.27
11302;BME280;5706;50.650;13.380;2022-11-20T09:31:25;56401.78;;;-140.63;59.35
11302;BME280;5706;50.650;13.380;2022-11-20T09:38:51;56389.88;;;-140.63;58.57
11302;BME280;5706;50.650;13.380;2022-11-20T09:41:38;56383.91;;;-140.63;58.04
11302;BME280;5706;50.650;13.380;2022-11-20T09:44:28;56437.59;;;-140.63;58.45
11302;BME280;5706;50.650;13.380;2022-11-20T09:47:25;56443.56;;;-140.63;58.79
11302;BME280;5706;50.650;13.380;2022-11-20T09:50:19;56387.88;;;-140.63;57.82
11302;BME280;5706;50.650;13.380;2022-11-20T09:53:11;56421.69;;;-140.63;57.61
11302;BME280;5706;50.650;13.380;2022-11-20T09:55:42;56401.78;;;-140.63;57.12
11302;BME280;5706;50.650;13.380;2022-11-20T09:58:20;56411.75;;;-140.63;57.30
11302;BME280;5706;50.650;13.380;2022-11-20T10:01:05;56375.94;;;-140.63;57.73
11302;BME280;5706;50.650;13.380;2022-11-20T10:03:53;56415.72;;;-140.63;56.94
11302;BME280;5706;50.650;13.380;2022-11-20T10:06:29;56401.78;;;-140.63;57.35
11302;BME280;5706;50.650;13.380;2022-11-20T10:09:03;56407.75;;;-140.63;57.83
11302;BME280;5706;50.650;13.380;2022-11-20T10:11:56;56389.88;;;-140.63;56.15
11302;BME280;5706;50.650;13.380;2022-11-20T10:15:03;56401.78;;;-140.63;57.02
11302;BME280;5706;50.650;13.380;2022-11-20T10:18:26;56393.84;;;-140.63;56.64
11302;BME280;5706;50.650;13.380;2022-11-20T10:24:27;56369.97;;;-140.63;55.06
11302;BME280;5706;50.650;13.380;2022-11-20T10:27:45;56403.78;;;-140.63;52.85
11302;BME280;5706;50.650;13.380;2022-11-20T10:30:43;56409.75;;;-140.63;50.42
11302;BME280;5706;50.650;13.380;2022-11-20T10:33:23;56395.84;;;-140.63;50.79
11302;BME280;5706;50.650;13.380;2022-11-20T16:49:56;56397.81;;;-140.63;64.99
11302;BME280;5706;50.650;13.380;2022-11-20T16:56:54;56437.59;;;-140.63;64.89
11302;BME280;5706;50.650;13.380;2022-11-20T22:03:46;56411.75;;;-140.63;70.22
11302;BME280;5706;50.650;13.380;2022-11-20T22:06:15;56443.56;;;-140.63;70.09
11302;BME280;5706;50.650;13.380;2022-11-20T22:08:43;56405.78;;;-140.63;70.84
11302;BME280;5706;50.650;13.380;2022-11-20T22:11:12;56411.75;;;-140.63;70.59
11302;BME280;5706;50.650;13.380;2022-11-20T22:13:42;56441.56;;;-140.63;71.27
11302;BME280;5706;50.650;13.380;2022-11-20T22:16:28;56421.69;;;-140.63;71.21
11302;BME280;5706;50.650;13.380;2022-11-20T22:18:58;56457.47;;;-140.63;70.57
11302;BME280;5706;50.650;13.380;2022-11-20T22:21:27;56417.69;;;-140.63;70.31
11302;BME280;5706;50.650;13.380;2022-11-20T22:23:57;56433.59;;;-140.63;69.21
11302;BME280;5706;50.650;13.380;2022-11-20T22:26:27;56417.69;;;-140.63;69.31
11302;BME280;5706;50.650;13.380;2022-11-20T22:28:57;56399.81;;;-140.63;69.40
11302;BME280;5706;50.650;13.380;2022-11-20T22:31:27;56417.69;;;-140.63;68.34
11302;BME280;5706;50.650;13.380;2022-11-20T22:33:56;56421.69;;;-140.63;69.42
11302;BME280;5706;50.650;13.380;2022-11-20T22:36:30;56417.69;;;-140.63;70.47
11302;BME280;5706;50.650;13.380;2022-11-20T22:39:01;56411.75;;;-140.63;68.53
11302;BME280;5706;50.650;13.380;2022-11-20T22:41:30;56417.69;;;-140.63;70.09
11302;BME280;5706;50.650;13.380;2022-11-20T22:43:59;56437.59;;;-140.63;68.81
11302;BME280;5706;50.650;13.380;2022-11-20T22:46:31;56391.84;;;-140.63;69.94
11302;BME280;5706;50.650;13.380;2022-11-20T22:49:02;56429.63;;;-140.63;70.27
11302;BME280;5706;50.650;13.380;2022-11-20T22:51:33;56395.84;;;-140.63;69.55
11302;BME280;5706;50.650;13.380;2022-11-20T22:54:03;56425.66;;;-140.63;69.99
11302;BME280;5706;50.650;13.380;2022-11-20T22:56:31;56417.69;;;-140.63;70.50
11302;BME280;5706;50.650;13.380;2022-11-20T22:58:59;56493.25;;;-140.63;69.32
11302;BME280;5706;50.650;13.380;2022-11-20T23:01:29;56415.72;;;-140.63;70.10
11302;BME280;5706;50.650;13.380;2022-11-20T23:03:59;56461.44;;;-140.63;70.78
11302;BME280;5706;50.650;13.380;2022-11-20T23:06:30;56419.69;;;-140.63;69.04
11302;BME280;5706;50.650;13.380;2022-11-20T23:09:00;56449.50;;;-140.63;68.96
11302;BME280;5706;50.650;13.380;2022-11-20T23:11:30;56435.59;;;-140.63;69.39
11302;BME280;5706;50.650;13.380;2022-11-20T23:14:01;56409.75;;;-140.63;70.13
11302;BME280;5706;50.650;13.380;2022-11-20T23:16:31;56441.56;;;-140.63;69.58
11302;BME280;5706;50.650;13.380;2022-11-20T23:19:02;56441.56;;;-140.63;68.81
11302;BME280;5706;50.650;13.380;2022-11-20T23:21:33;56429.63;;;-140.63;71.95
11302;BME280;5706;50.650;13.380;2022-11-20T23:24:01;56439.56;;;-140.63;70.09
11302;BME280;5706;50.650;13.380;2022-11-20T23:26:32;56421.69;;;-140.63;70.04
11302;BME280;5706;50.650;13.380;2022-11-20T23:29:03;56451.50;;;-140.63;71.41
11302;BME280;5706;50.650;13.380;2022-11-20T23:31:45;56385.88;;;-140.63;71.38
11302;BME280;5706;50.650;13.380;2022-11-20T23:34:15;56433.59;;;-140.63;69.91
11302;BME280;5706;50.650;13.380;2022-11-20T23:36:45;56433.59;;;-140.63;69.93
11302;BME280;5706;50.650;13.380;2022-11-20T23:39:14;56395.84;;;-140.63;69.08
11302;BME280;5706;50.650;13.380;2022-11-20T23:41:44;56417.69;;;-140.63;69.72
11302;BME280;5706;50.650;13.380;2022-11-20T23:44:13;56395.84;;;-140.63;69.43
11302;BME280;5706;50.650;13.380;2022-11-20T23:46:46;56393.84;;;-140.63;68.57
11302;BME280;5706;50.650;13.380;2022-11-20T23:49:17;56445.53;;;-140.63;68.96
11302;BME280;5706;50.650;13.380;2022-11-20T23:51:47;56413.72;;;-140.63;70.44
11302;BME280;5706;50.650;13.380;2022-11-20T23:54:24;56425.66;;;-140.63;70.74
